Terminal Aerodrome Forecast
Issued by NWS Knoxville/Tri Cities, TN

Home | Current Version | Previous Version | Text Only | Print | Product List | Glossary On
Versions: 1 2 3 4 5 6 7 8 9 10 11 12 13 14 15 16 17 18 19 20 21 22 23 24 25 26 27 28 29 30
000
FTUS44 KMRX 230623 AAA
TAFTRI
TAF AMD
KTRI 230623Z 2306/2406 VRB04KT P6SM VCTS SCT040CB BKN250
      TEMPO 2307/2308 TSRA BKN035CB
     FM231100 VRB03KT P6SM SCT040 BKN200
     FM231400 24008KT P6SM SCT045 BKN250
     FM231800 24009G15KT P6SM VCTS BKN045CB BKN250
     FM240000 VRB03KT P6SM VCTS SCT040CB BKN150=

USA.gov is the U.S. government's official web portal to all federal, state and local government web resources and services.